sensor_id;sensor_type;location;lat;lon;timestamp;temperature;humidity
60313;DHT22;46158;52.850;6.970;2023-07-13T00:02:16;20.90;70.60
60313;DHT22;46158;52.850;6.970;2023-07-13T00:04:42;20.90;70.70
60313;DHT22;46158;52.850;6.970;2023-07-13T00:07:09;20.90;70.70
60313;DHT22;46158;52.850;6.970;2023-07-13T00:09:35;20.90;70.70
60313;DHT22;46158;52.850;6.970;2023-07-13T00:12:01;20.90;70.70
60313;DHT22;46158;52.850;6.970;2023-07-13T00:14:28;20.90;70.80
60313;DHT22;46158;52.850;6.970;2023-07-13T00:16:54;20.90;70.80
60313;DHT22;46158;52.850;6.970;2023-07-13T00:19:21;20.90;70.80
60313;DHT22;46158;52.850;6.970;2023-07-13T00:21:47;20.90;70.80
60313;DHT22;46158;52.850;6.970;2023-07-13T00:24:15;20.90;70.90
60313;DHT22;46158;52.850;6.970;2023-07-13T00:26:47;20.80;70.80
60313;DHT22;46158;52.850;6.970;2023-07-13T00:29:19;20.90;70.90
60313;DHT22;46158;52.850;6.970;2023-07-13T00:31:46;20.90;70.90
60313;DHT22;46158;52.850;6.970;2023-07-13T00:34:12;20.80;70.90
60313;DHT22;46158;52.850;6.970;2023-07-13T00:36:38;20.80;70.90
60313;DHT22;46158;52.850;6.970;2023-07-13T00:39:04;20.80;71.00
60313;DHT22;46158;52.850;6.970;2023-07-13T00:41:31;20.80;71.00
60313;DHT22;46158;52.850;6.970;2023-07-13T00:43:57;20.80;71.00
60313;DHT22;46158;52.850;6.970;2023-07-13T00:46:28;20.80;71.00
60313;DHT22;46158;52.850;6.970;2023-07-13T00:48:58;20.80;71.00
60313;DHT22;46158;52.850;6.970;2023-07-13T00:51:30;20.80;71.00
60313;DHT22;46158;52.850;6.970;2023-07-13T00:54:01;20.90;71.20
60313;DHT22;46158;52.850;6.970;2023-07-13T00:56:28;20.80;71.10
60313;DHT22;46158;52.850;6.970;2023-07-13T00:58:55;20.80;71.10
60313;DHT22;46158;52.850;6.970;2023-07-13T01:01:21;20.80;71.10
60313;DHT22;46158;52.850;6.970;2023-07-13T01:03:46;20.80;71.20
60313;DHT22;46158;52.850;6.970;2023-07-13T01:06:13;20.80;71.20
60313;DHT22;46158;52.850;6.970;2023-07-13T01:08:41;20.80;71.20
60313;DHT22;46158;52.850;6.970;2023-07-13T01:11:07;20.80;71.20
60313;DHT22;46158;52.850;6.970;2023-07-13T01:13:33;20.80;71.30
60313;DHT22;46158;52.850;6.970;2023-07-13T01:16:04;20.80;72.00
60313;DHT22;46158;52.850;6.970;2023-07-13T01:18:31;20.80;71.30
60313;DHT22;46158;52.850;6.970;2023-07-13T01:21:03;20.80;71.30
60313;DHT22;46158;52.850;6.970;2023-07-13T01:23:30;20.80;71.30
60313;DHT22;46158;52.850;6.970;2023-07-13T01:25:57;20.80;71.30
60313;DHT22;46158;52.850;6.970;2023-07-13T01:28:26;20.70;71.40
60313;DHT22;46158;52.850;6.970;2023-07-13T01:30:54;20.80;71.40
60313;DHT22;46158;52.850;6.970;2023-07-13T01:33:20;20.70;71.40
60313;DHT22;46158;52.850;6.970;2023-07-13T01:35:47;20.70;71.40
60313;DHT22;46158;52.850;6.970;2023-07-13T01:38:19;20.70;71.40
60313;DHT22;46158;52.850;6.970;2023-07-13T01:40:45;20.80;71.40
60313;DHT22;46158;52.850;6.970;2023-07-13T01:43:11;20.70;71.50
60313;DHT22;46158;52.850;6.970;2023-07-13T01:45:37;20.70;71.40
60313;DHT22;46158;52.850;6.970;2023-07-13T01:48:03;20.70;71.50
60313;DHT22;46158;52.850;6.970;2023-07-13T01:50:28;20.70;71.50
60313;DHT22;46158;52.850;6.970;2023-07-13T01:52:54;20.70;71.50
60313;DHT22;46158;52.850;6.970;2023-07-13T01:55:20;20.70;71.50
60313;DHT22;46158;52.850;6.970;2023-07-13T01:57:48;20.70;71.60
60313;DHT22;46158;52.850;6.970;2023-07-13T02:00:14;20.70;71.60
60313;DHT22;46158;52.850;6.970;2023-07-13T02:02:40;20.70;71.60
60313;DHT22;46158;52.850;6.970;2023-07-13T02:05:07;20.70;71.60
60313;DHT22;46158;52.850;6.970;2023-07-13T02:07:33;20.70;71.60
60313;DHT22;46158;52.850;6.970;2023-07-13T02:09:58;20.70;71.60
60313;DHT22;46158;52.850;6.970;2023-07-13T02:12:24;20.70;71.60
60313;DHT22;46158;52.850;6.970;2023-07-13T02:14:50;20.70;71.70
60313;DHT22;46158;52.850;6.970;2023-07-13T02:17:15;20.70;71.70
60313;DHT22;46158;52.850;6.970;2023-07-13T02:19:41;20.60;71.60
60313;DHT22;46158;52.850;6.970;2023-07-13T02:22:07;20.60;71.60
60313;DHT22;46158;52.850;6.970;2023-07-13T02:24:33;20.60;71.70
60313;DHT22;46158;52.850;6.970;2023-07-13T02:26:59;20.60;71.70
60313;DHT22;46158;52.850;6.970;2023-07-13T02:29:25;20.70;71.80
60313;DHT22;46158;52.850;6.970;2023-07-13T02:31:50;20.60;71.70
60313;DHT22;46158;52.850;6.970;2023-07-13T02:34:16;20.60;71.70
60313;DHT22;46158;52.850;6.970;2023-07-13T02:36:45;20.60;71.70
60313;DHT22;46158;52.850;6.970;2023-07-13T02:39:12;20.60;71.70
60313;DHT22;46158;52.850;6.970;2023-07-13T02:41:38;20.60;71.80
60313;DHT22;46158;52.850;6.970;2023-07-13T02:44:04;20.60;71.80
60313;DHT22;46158;52.850;6.970;2023-07-13T02:46:31;20.60;71.80
60313;DHT22;46158;52.850;6.970;2023-07-13T02:48:57;20.60;71.80
60313;DHT22;46158;52.850;6.970;2023-07-13T02:51:23;20.60;71.80
60313;DHT22;46158;52.850;6.970;2023-07-13T02:53:48;20.60;71.80
60313;DHT22;46158;52.850;6.970;2023-07-13T02:56:14;20.60;71.90
60313;DHT22;46158;52.850;6.970;2023-07-13T02:58:40;20.60;71.90
60313;DHT22;46158;52.850;6.970;2023-07-13T03:01:08;20.60;71.90
60313;DHT22;46158;52.850;6.970;2023-07-13T03:03:34;20.60;71.90
60313;DHT22;46158;52.850;6.970;2023-07-13T03:06:01;20.60;71.90
60313;DHT22;46158;52.850;6.970;2023-07-13T03:08:29;20.60;71.90
60313;DHT22;46158;52.850;6.970;2023-07-13T03:11:03;20.60;71.90
60313;DHT22;46158;52.850;6.970;2023-07-13T03:13:29;20.50;71.90
60313;DHT22;46158;52.850;6.970;2023-07-13T03:15:55;20.50;71.90
60313;DHT22;46158;52.850;6.970;2023-07-13T03:18:26;20.50;71.90
60313;DHT22;46158;52.850;6.970;2023-07-13T03:20:53;20.50;72.40
60313;DHT22;46158;52.850;6.970;2023-07-13T03:23:20;20.50;71.90
60313;DHT22;46158;52.850;6.970;2023-07-13T03:25:47;20.50;72.00
60313;DHT22;46158;52.850;6.970;2023-07-13T03:28:14;20.50;72.00
60313;DHT22;46158;52.850;6.970;2023-07-13T03:30:40;20.50;72.00
60313;DHT22;46158;52.850;6.970;2023-07-13T03:33:06;20.50;72.00
60313;DHT22;46158;52.850;6.970;2023-07-13T03:35:33;20.50;72.00
60313;DHT22;46158;52.850;6.970;2023-07-13T03:37:59;20.50;72.10
60313;DHT22;46158;52.850;6.970;2023-07-13T03:40:36;20.60;72.10
60313;DHT22;46158;52.850;6.970;2023-07-13T03:43:02;20.50;72.10
60313;DHT22;46158;52.850;6.970;2023-07-13T03:45:28;20.50;72.10
60313;DHT22;46158;52.850;6.970;2023-07-13T03:47:56;20.50;72.10
60313;DHT22;46158;52.850;6.970;2023-07-13T03:50:22;20.50;72.10
60313;DHT22;46158;52.850;6.970;2023-07-13T03:52:48;20.50;72.10
60313;DHT22;46158;52.850;6.970;2023-07-13T03:55:14;20.50;72.10
60313;DHT22;46158;52.850;6.970;2023-07-13T03:57:40;20.50;72.20
60313;DHT22;46158;52.850;6.970;2023-07-13T04:00:07;20.50;72.10
60313;DHT22;46158;52.850;6.970;2023-07-13T04:02:33;20.50;72.10
60313;DHT22;46158;52.850;6.970;2023-07-13T04:04:59;20.50;72.80
60313;DHT22;46158;52.850;6.970;2023-07-13T04:07:25;20.50;72.20
60313;DHT22;46158;52.850;6.970;2023-07-13T04:09:51;20.50;72.20
60313;DHT22;46158;52.850;6.970;2023-07-13T04:12:16;20.50;72.20
60313;DHT22;46158;52.850;6.970;2023-07-13T04:14:42;20.50;72.20
60313;DHT22;46158;52.850;6.970;2023-07-13T04:17:08;20.50;72.20
60313;DHT22;46158;52.850;6.970;2023-07-13T04:19:34;20.40;72.20
60313;DHT22;46158;52.850;6.970;2023-07-13T04:21:59;20.40;72.20
60313;DHT22;46158;52.850;6.970;2023-07-13T04:24:25;20.40;72.20
60313;DHT22;46158;52.850;6.970;2023-07-13T04:26:54;20.40;72.20
60313;DHT22;46158;52.850;6.970;2023-07-13T04:29:25;20.40;72.30
60313;DHT22;46158;52.850;6.970;2023-07-13T04:31:50;20.40;72.30
60313;DHT22;46158;52.850;6.970;2023-07-13T04:34:16;20.40;72.30
60313;DHT22;46158;52.850;6.970;2023-07-13T04:36:42;20.40;72.20
60313;DHT22;46158;52.850;6.970;2023-07-13T04:39:08;20.40;73.00
60313;DHT22;46158;52.850;6.970;2023-07-13T04:41:34;20.40;72.30
60313;DHT22;46158;52.850;6.970;2023-07-13T04:44:03;20.40;72.40
60313;DHT22;46158;52.850;6.970;2023-07-13T04:46:29;20.40;72.30
60313;DHT22;46158;52.850;6.970;2023-07-13T04:48:55;20.40;72.30
60313;DHT22;46158;52.850;6.970;2023-07-13T04:51:21;20.40;72.30
60313;DHT22;46158;52.850;6.970;2023-07-13T04:53:49;20.40;72.30
60313;DHT22;46158;52.850;6.970;2023-07-13T04:56:15;20.40;72.40
60313;DHT22;46158;52.850;6.970;2023-07-13T04:58:44;20.40;72.40
60313;DHT22;46158;52.850;6.970;2023-07-13T05:01:10;20.40;72.40
60313;DHT22;46158;52.850;6.970;2023-07-13T05:03:36;20.40;72.30
60313;DHT22;46158;52.850;6.970;2023-07-13T05:06:22;20.40;72.40
60313;DHT22;46158;52.850;6.970;2023-07-13T05:08:48;20.40;72.40
60313;DHT22;46158;52.850;6.970;2023-07-13T05:11:15;20.30;72.40
60313;DHT22;46158;52.850;6.970;2023-07-13T05:13:46;20.30;72.50
60313;DHT22;46158;52.850;6.970;2023-07-13T05:16:12;20.30;72.40
60313;DHT22;46158;52.850;6.970;2023-07-13T05:18:41;20.30;72.40
60313;DHT22;46158;52.850;6.970;2023-07-13T05:21:09;20.30;72.50
60313;DHT22;46158;52.850;6.970;2023-07-13T05:23:36;20.30;72.60
60313;DHT22;46158;52.850;6.970;2023-07-13T05:26:02;20.20;72.80
60313;DHT22;46158;52.850;6.970;2023-07-13T05:28:30;20.20;72.90
60313;DHT22;46158;52.850;6.970;2023-07-13T05:31:02;20.20;73.10
60313;DHT22;46158;52.850;6.970;2023-07-13T05:33:31;20.20;73.20
60313;DHT22;46158;52.850;6.970;2023-07-13T05:35:59;20.20;73.20
60313;DHT22;46158;52.850;6.970;2023-07-13T05:38:27;20.10;73.20
60313;DHT22;46158;52.850;6.970;2023-07-13T05:41:01;20.10;73.10
60313;DHT22;46158;52.850;6.970;2023-07-13T05:43:27;20.20;73.30
60313;DHT22;46158;52.850;6.970;2023-07-13T05:45:55;20.10;73.30
60313;DHT22;46158;52.850;6.970;2023-07-13T05:48:22;20.10;73.40
60313;DHT22;46158;52.850;6.970;2023-07-13T05:53:25;20.10;73.50
60313;DHT22;46158;52.850;6.970;2023-07-13T05:55:54;20.10;73.50
60313;DHT22;46158;52.850;6.970;2023-07-13T05:58:21;20.10;73.50
60313;DHT22;46158;52.850;6.970;2023-07-13T06:00:48;20.10;73.60
60313;DHT22;46158;52.850;6.970;2023-07-13T06:03:23;20.10;73.50
60313;DHT22;46158;52.850;6.970;2023-07-13T06:05:49;20.10;73.50
60313;DHT22;46158;52.850;6.970;2023-07-13T06:08:15;20.10;73.70
60313;DHT22;46158;52.850;6.970;2023-07-13T06:10:41;20.10;73.70
60313;DHT22;46158;52.850;6.970;2023-07-13T06:13:16;20.10;73.90
60313;DHT22;46158;52.850;6.970;2023-07-13T06:15:45;20.10;73.90
60313;DHT22;46158;52.850;6.970;2023-07-13T06:18:15;20.10;74.00
60313;DHT22;46158;52.850;6.970;2023-07-13T06:20:41;20.10;74.10
60313;DHT22;46158;52.850;6.970;2023-07-13T06:23:08;20.10;74.20
60313;DHT22;46158;52.850;6.970;2023-07-13T06:25:34;20.10;74.30
60313;DHT22;46158;52.850;6.970;2023-07-13T06:28:00;20.10;74.40
60313;DHT22;46158;52.850;6.970;2023-07-13T06:30:26;20.10;74.30
60313;DHT22;46158;52.850;6.970;2023-07-13T06:32:52;20.10;74.20
60313;DHT22;46158;52.850;6.970;2023-07-13T06:35:21;20.10;74.10
60313;DHT22;46158;52.850;6.970;2023-07-13T06:37:47;20.20;74.20
60313;DHT22;46158;52.850;6.970;2023-07-13T06:40:16;20.10;74.20
60313;DHT22;46158;52.850;6.970;2023-07-13T06:42:46;20.20;74.30
60313;DHT22;46158;52.850;6.970;2023-07-13T06:45:12;20.20;74.50
60313;DHT22;46158;52.850;6.970;2023-07-13T06:47:38;20.20;74.40
60313;DHT22;46158;52.850;6.970;2023-07-13T06:50:10;20.20;74.50
60313;DHT22;46158;52.850;6.970;2023-07-13T06:52:36;20.20;74.40
60313;DHT22;46158;52.850;6.970;2023-07-13T06:55:05;20.30;74.50
60313;DHT22;46158;52.850;6.970;2023-07-13T06:57:32;20.30;74.70
60313;DHT22;46158;52.850;6.970;2023-07-13T06:59:57;20.30;74.80
60313;DHT22;46158;52.850;6.970;2023-07-13T07:02:23;20.30;75.00
60313;DHT22;46158;52.850;6.970;2023-07-13T07:04:49;20.30;75.00
60313;DHT22;46158;52.850;6.970;2023-07-13T07:07:15;20.30;74.90
60313;DHT22;46158;52.850;6.970;2023-07-13T07:09:42;20.40;75.00
60313;DHT22;46158;52.850;6.970;2023-07-13T07:12:07;20.40;75.00
60313;DHT22;46158;52.850;6.970;2023-07-13T07:14:34;20.40;75.10
60313;DHT22;46158;52.850;6.970;2023-07-13T07:17:00;20.40;75.10
60313;DHT22;46158;52.850;6.970;2023-07-13T07:19:30;20.40;75.10
60313;DHT22;46158;52.850;6.970;2023-07-13T07:21:57;20.50;75.20
60313;DHT22;46158;52.850;6.970;2023-07-13T07:24:23;20.50;75.10
60313;DHT22;46158;52.850;6.970;2023-07-13T07:26:49;20.50;75.20
60313;DHT22;46158;52.850;6.970;2023-07-13T07:29:16;20.50;75.20
60313;DHT22;46158;52.850;6.970;2023-07-13T07:31:45;20.50;75.20
60313;DHT22;46158;52.850;6.970;2023-07-13T07:34:16;20.50;75.20
60313;DHT22;46158;52.850;6.970;2023-07-13T07:36:42;20.50;75.20
60313;DHT22;46158;52.850;6.970;2023-07-13T07:39:07;20.50;75.20
60313;DHT22;46158;52.850;6.970;2023-07-13T07:41:33;20.60;75.30
60313;DHT22;46158;52.850;6.970;2023-07-13T07:44:05;20.60;75.30
60313;DHT22;46158;52.850;6.970;2023-07-13T07:46:33;20.60;75.20
60313;DHT22;46158;52.850;6.970;2023-07-13T07:49:02;20.60;75.40
60313;DHT22;46158;52.850;6.970;2023-07-13T07:51:28;20.60;75.30
60313;DHT22;46158;52.850;6.970;2023-07-13T07:53:54;20.60;75.40
60313;DHT22;46158;52.850;6.970;2023-07-13T07:56:26;20.60;75.40
60313;DHT22;46158;52.850;6.970;2023-07-13T07:58:52;20.60;75.30
60313;DHT22;46158;52.850;6.970;2023-07-13T08:01:18;20.60;75.40
60313;DHT22;46158;52.850;6.970;2023-07-13T08:03:43;20.60;75.40
60313;DHT22;46158;52.850;6.970;2023-07-13T08:06:09;20.60;75.40
60313;DHT22;46158;52.850;6.970;2023-07-13T08:08:35;20.60;75.40
60313;DHT22;46158;52.850;6.970;2023-07-13T08:11:09;20.60;75.40
60313;DHT22;46158;52.850;6.970;2023-07-13T08:13:38;20.60;75.50
60313;DHT22;46158;52.850;6.970;2023-07-13T08:16:05;20.60;75.50
60313;DHT22;46158;52.850;6.970;2023-07-13T08:18:32;20.60;75.60
60313;DHT22;46158;52.850;6.970;2023-07-13T08:20:58;20.60;75.50
60313;DHT22;46158;52.850;6.970;2023-07-13T08:23:28;20.60;75.50
60313;DHT22;46158;52.850;6.970;2023-07-13T08:25:54;20.60;75.60
60313;DHT22;46158;52.850;6.970;2023-07-13T08:28:29;20.60;75.70
60313;DHT22;46158;52.850;6.970;2023-07-13T08:31:09;20.70;75.80
60313;DHT22;46158;52.850;6.970;2023-07-13T08:33:36;20.70;75.90
60313;DHT22;46158;52.850;6.970;2023-07-13T08:36:11;20.70;75.90
60313;DHT22;46158;52.850;6.970;2023-07-13T08:38:37;20.60;75.90
60313;DHT22;46158;52.850;6.970;2023-07-13T08:41:15;20.70;76.10
60313;DHT22;46158;52.850;6.970;2023-07-13T08:43:56;20.70;75.90
60313;DHT22;46158;52.850;6.970;2023-07-13T08:47:07;20.70;76.00
60313;DHT22;46158;52.850;6.970;2023-07-13T08:49:22;20.70;76.00
60313;DHT22;46158;52.850;6.970;2023-07-13T08:51:58;20.70;76.00
60313;DHT22;46158;52.850;6.970;2023-07-13T08:54:35;20.70;76.10
60313;DHT22;46158;52.850;6.970;2023-07-13T08:57:26;20.70;75.90
60313;DHT22;46158;52.850;6.970;2023-07-13T08:59:54;20.70;75.90
60313;DHT22;46158;52.850;6.970;2023-07-13T09:02:26;20.70;75.80
60313;DHT22;46158;52.850;6.970;2023-07-13T09:05:08;20.70;75.80
60313;DHT22;46158;52.850;6.970;2023-07-13T09:10:46;20.80;76.10
60313;DHT22;46158;52.850;6.970;2023-07-13T09:13:37;20.80;76.70
60313;DHT22;46158;52.850;6.970;2023-07-13T09:16:05;20.80;77.10
60313;DHT22;46158;52.850;6.970;2023-07-13T09:18:51;20.80;77.40
60313;DHT22;46158;52.850;6.970;2023-07-13T09:21:34;20.80;77.50
60313;DHT22;46158;52.850;6.970;2023-07-13T09:26:52;20.80;77.10
60313;DHT22;46158;52.850;6.970;2023-07-13T09:29:30;20.80;76.90
60313;DHT22;46158;52.850;6.970;2023-07-13T09:32:11;20.90;76.90
60313;DHT22;46158;52.850;6.970;2023-07-13T09:34:39;20.90;76.90
60313;DHT22;46158;52.850;6.970;2023-07-13T09:37:05;20.90;76.80
60313;DHT22;46158;52.850;6.970;2023-07-13T09:39:42;20.90;76.70
60313;DHT22;46158;52.850;6.970;2023-07-13T09:42:17;20.90;76.70
60313;DHT22;46158;52.850;6.970;2023-07-13T09:45:02;20.80;76.90
60313;DHT22;46158;52.850;6.970;2023-07-13T09:47:31;20.80;76.60
60313;DHT22;46158;52.850;6.970;2023-07-13T09:50:06;20.90;76.70
60313;DHT22;46158;52.850;6.970;2023-07-13T09:52:46;20.90;76.60
60313;DHT22;46158;52.850;6.970;2023-07-13T09:55:37;20.90;76.60
60313;DHT22;46158;52.850;6.970;2023-07-13T09:58:11;20.90;76.70
60313;DHT22;46158;52.850;6.970;2023-07-13T10:00:43;20.90;76.60
60313;DHT22;46158;52.850;6.970;2023-07-13T10:03:19;20.90;76.60
60313;DHT22;46158;52.850;6.970;2023-07-13T10:05:47;20.90;76.50
60313;DHT22;46158;52.850;6.970;2023-07-13T10:08:30;20.90;76.60
60313;DHT22;46158;52.850;6.970;2023-07-13T10:11:02;20.90;76.50
60313;DHT22;46158;52.850;6.970;2023-07-13T10:13:37;20.90;76.40
60313;DHT22;46158;52.850;6.970;2023-07-13T10:16:04;20.90;76.40
60313;DHT22;46158;52.850;6.970;2023-07-13T10:19:05;20.90;76.40
60313;DHT22;46158;52.850;6.970;2023-07-13T10:21:43;20.90;76.40
60313;DHT22;46158;52.850;6.970;2023-07-13T10:24:15;20.90;76.30
60313;DHT22;46158;52.850;6.970;2023-07-13T10:32:36;20.90;76.30
60313;DHT22;46158;52.850;6.970;2023-07-13T10:35:01;20.90;76.30
60313;DHT22;46158;52.850;6.970;2023-07-13T10:37:47;20.90;76.30
60313;DHT22;46158;52.850;6.970;2023-07-13T10:40:22;20.90;76.40
60313;DHT22;46158;52.850;6.970;2023-07-13T10:42:51;20.90;76.40
60313;DHT22;46158;52.850;6.970;2023-07-13T10:45:23;20.90;76.40
60313;DHT22;46158;52.850;6.970;2023-07-13T10:47:51;20.90;76.40
60313;DHT22;46158;52.850;6.970;2023-07-13T10:50:26;20.90;76.40
60313;DHT22;46158;52.850;6.970;2023-07-13T10:53:20;20.90;76.40
60313;DHT22;46158;52.850;6.970;2023-07-13T11:01:07;20.90;76.40
60313;DHT22;46158;52.850;6.970;2023-07-13T11:13:59;20.90;76.30
60313;DHT22;46158;52.850;6.970;2023-07-13T11:16:45;21.00;76.30
60313;DHT22;46158;52.850;6.970;2023-07-13T11:25:01;21.00;76.20
60313;DHT22;46158;52.850;6.970;2023-07-13T11:27:43;21.00;76.20
60313;DHT22;46158;52.850;6.970;2023-07-13T11:30:31;21.00;76.20
60313;DHT22;46158;52.850;6.970;2023-07-13T11:41:52;21.00;76.10
60313;DHT22;46158;52.850;6.970;2023-07-13T11:44:24;21.00;76.10
60313;DHT22;46158;52.850;6.970;2023-07-13T11:46:52;21.00;76.00
60313;DHT22;46158;52.850;6.970;2023-07-13T11:49:19;21.00;76.00
60313;DHT22;46158;52.850;6.970;2023-07-13T11:51:46;21.00;76.00
60313;DHT22;46158;52.850;6.970;2023-07-13T11:54:51;21.00;76.00
60313;DHT22;46158;52.850;6.970;2023-07-13T11:57:30;21.00;75.90
60313;DHT22;46158;52.850;6.970;2023-07-13T12:00:03;21.00;76.00
60313;DHT22;46158;52.850;6.970;2023-07-13T12:02:39;20.90;76.10
60313;DHT22;46158;52.850;6.970;2023-07-13T12:05:11;20.90;76.00
60313;DHT22;46158;52.850;6.970;2023-07-13T12:07:50;21.00;76.00
60313;DHT22;46158;52.850;6.970;2023-07-13T12:10:28;21.00;76.00
60313;DHT22;46158;52.850;6.970;2023-07-13T12:13:04;21.00;76.00
60313;DHT22;46158;52.850;6.970;2023-07-13T12:15:43;21.00;75.90
60313;DHT22;46158;52.850;6.970;2023-07-13T12:18:20;21.00;75.90
60313;DHT22;46158;52.850;6.970;2023-07-13T12:20:47;21.00;75.90
60313;DHT22;46158;52.850;6.970;2023-07-13T12:23:23;21.00;75.90
60313;DHT22;46158;52.850;6.970;2023-07-13T12:25:51;21.00;76.30
60313;DHT22;46158;52.850;6.970;2023-07-13T12:28:30;21.00;75.90
60313;DHT22;46158;52.850;6.970;2023-07-13T12:31:02;21.00;75.90
60313;DHT22;46158;52.850;6.970;2023-07-13T12:33:29;21.00;75.90
60313;DHT22;46158;52.850;6.970;2023-07-13T12:36:02;21.00;75.90
60313;DHT22;46158;52.850;6.970;2023-07-13T12:38:33;21.00;75.80
60313;DHT22;46158;52.850;6.970;2023-07-13T12:41:08;21.00;75.80
60313;DHT22;46158;52.850;6.970;2023-07-13T12:43:36;21.00;75.90
60313;DHT22;46158;52.850;6.970;2023-07-13T12:46:20;21.00;75.80
60313;DHT22;46158;52.850;6.970;2023-07-13T12:48:56;21.00;75.80
60313;DHT22;46158;52.850;6.970;2023-07-13T12:51:25;21.00;75.80
60313;DHT22;46158;52.850;6.970;2023-07-13T12:54:11;21.00;75.80
60313;DHT22;46158;52.850;6.970;2023-07-13T12:56:51;21.00;75.70
60313;DHT22;46158;52.850;6.970;2023-07-13T12:59:20;21.00;75.80
60313;DHT22;46158;52.850;6.970;2023-07-13T13:01:48;21.00;75.80
60313;DHT22;46158;52.850;6.970;2023-07-13T13:04:18;21.00;75.80
60313;DHT22;46158;52.850;6.970;2023-07-13T13:06:48;21.00;75.70
60313;DHT22;46158;52.850;6.970;2023-07-13T13:09:17;21.00;75.70
60313;DHT22;46158;52.850;6.970;2023-07-13T13:11:45;21.00;75.70
60313;DHT22;46158;52.850;6.970;2023-07-13T13:14:11;21.00;75.70
60313;DHT22;46158;52.850;6.970;2023-07-13T13:16:47;21.00;75.70
60313;DHT22;46158;52.850;6.970;2023-07-13T13:19:17;21.00;75.60
60313;DHT22;46158;52.850;6.970;2023-07-13T13:21:47;21.00;75.60
60313;DHT22;46158;52.850;6.970;2023-07-13T13:24:15;21.00;75.60
60313;DHT22;46158;52.850;6.970;2023-07-13T13:26:43;21.10;75.70
60313;DHT22;46158;52.850;6.970;2023-07-13T13:29:17;21.00;75.60
60313;DHT22;46158;52.850;6.970;2023-07-13T13:31:44;21.00;75.60
60313;DHT22;46158;52.850;6.970;2023-07-13T13:34:16;21.00;75.60
60313;DHT22;46158;52.850;6.970;2023-07-13T13:36:43;21.00;75.50
60313;DHT22;46158;52.850;6.970;2023-07-13T13:39:20;21.10;76.00
60313;DHT22;46158;52.850;6.970;2023-07-13T13:41:46;21.10;75.60
60313;DHT22;46158;52.850;6.970;2023-07-13T13:44:14;21.10;75.60
60313;DHT22;46158;52.850;6.970;2023-07-13T13:46:40;21.10;75.60
60313;DHT22;46158;52.850;6.970;2023-07-13T13:49:19;21.00;75.60
60313;DHT22;46158;52.850;6.970;2023-07-13T13:51:45;21.10;75.70
60313;DHT22;46158;52.850;6.970;2023-07-13T13:54:16;21.10;75.70
60313;DHT22;46158;52.850;6.970;2023-07-13T13:56:43;21.10;75.60
60313;DHT22;46158;52.850;6.970;2023-07-13T13:59:14;21.10;75.60
60313;DHT22;46158;52.850;6.970;2023-07-13T14:01:44;21.00;75.50
60313;DHT22;46158;52.850;6.970;2023-07-13T14:04:22;21.10;75.60
60313;DHT22;46158;52.850;6.970;2023-07-13T14:06:48;21.10;75.50
60313;DHT22;46158;52.850;6.970;2023-07-13T14:09:23;21.10;75.60
60313;DHT22;46158;52.850;6.970;2023-07-13T14:11:50;21.10;75.50
60313;DHT22;46158;52.850;6.970;2023-07-13T14:14:22;21.10;75.50
60313;DHT22;46158;52.850;6.970;2023-07-13T14:16:52;21.10;75.50
60313;DHT22;46158;52.850;6.970;2023-07-13T14:19:26;21.10;75.50
60313;DHT22;46158;52.850;6.970;2023-07-13T14:21:53;21.10;75.50
60313;DHT22;46158;52.850;6.970;2023-07-13T14:24:20;21.10;75.50
60313;DHT22;46158;52.850;6.970;2023-07-13T14:26:47;21.10;75.40
60313;DHT22;46158;52.850;6.970;2023-07-13T14:29:15;21.10;75.50
60313;DHT22;46158;52.850;6.970;2023-07-13T14:32:09;21.10;75.40
60313;DHT22;46158;52.850;6.970;2023-07-13T14:34:43;21.10;75.40
60313;DHT22;46158;52.850;6.970;2023-07-13T14:37:14;21.10;75.40
60313;DHT22;46158;52.850;6.970;2023-07-13T14:39:44;21.10;75.30
60313;DHT22;46158;52.850;6.970;2023-07-13T14:42:13;21.10;75.40
60313;DHT22;46158;52.850;6.970;2023-07-13T14:44:39;21.10;75.40
60313;DHT22;46158;52.850;6.970;2023-07-13T14:47:11;21.10;75.30
60313;DHT22;46158;52.850;6.970;2023-07-13T14:49:44;21.10;75.50
60313;DHT22;46158;52.850;6.970;2023-07-13T14:52:18;21.10;75.30
60313;DHT22;46158;52.850;6.970;2023-07-13T14:54:46;21.10;75.30
60313;DHT22;46158;52.850;6.970;2023-07-13T14:57:21;21.10;75.30
60313;DHT22;46158;52.850;6.970;2023-07-13T14:59:49;21.00;75.20
60313;DHT22;46158;52.850;6.970;2023-07-13T15:02:29;21.10;75.20
60313;DHT22;46158;52.850;6.970;2023-07-13T15:04:56;21.10;75.30
60313;DHT22;46158;52.850;6.970;2023-07-13T15:07:24;21.10;75.30
60313;DHT22;46158;52.850;6.970;2023-07-13T15:09:53;21.10;75.20
60313;DHT22;46158;52.850;6.970;2023-07-13T15:12:25;21.10;75.20
60313;DHT22;46158;52.850;6.970;2023-07-13T15:14:50;21.10;75.30
60313;DHT22;46158;52.850;6.970;2023-07-13T15:17:28;21.10;75.30
60313;DHT22;46158;52.850;6.970;2023-07-13T15:19:57;21.10;75.10
60313;DHT22;46158;52.850;6.970;2023-07-13T15:22:22;21.10;75.30
60313;DHT22;46158;52.850;6.970;2023-07-13T15:24:49;21.10;75.20
60313;DHT22;46158;52.850;6.970;2023-07-13T15:27:15;21.10;75.20
60313;DHT22;46158;52.850;6.970;2023-07-13T15:29:41;21.10;75.20
60313;DHT22;46158;52.850;6.970;2023-07-13T15:32:13;21.10;75.10
60313;DHT22;46158;52.850;6.970;2023-07-13T15:34:40;21.10;75.10
60313;DHT22;46158;52.850;6.970;2023-07-13T15:37:14;21.10;75.20
60313;DHT22;46158;52.850;6.970;2023-07-13T15:39:40;21.10;75.10
60313;DHT22;46158;52.850;6.970;2023-07-13T15:42:15;21.10;75.30
60313;DHT22;46158;52.850;6.970;2023-07-13T15:44:41;21.10;75.10
60313;DHT22;46158;52.850;6.970;2023-07-13T15:47:12;21.10;75.20
60313;DHT22;46158;52.850;6.970;2023-07-13T15:49:43;21.10;75.20
60313;DHT22;46158;52.850;6.970;2023-07-13T15:52:20;21.10;75.30
60313;DHT22;46158;52.850;6.970;2023-07-13T15:54:56;21.10;75.30
60313;DHT22;46158;52.850;6.970;2023-07-13T15:57:24;21.10;75.30
60313;DHT22;46158;52.850;6.970;2023-07-13T15:59:54;21.10;75.40
60313;DHT22;46158;52.850;6.970;2023-07-13T16:02:26;21.10;75.40
60313;DHT22;46158;52.850;6.970;2023-07-13T16:04:52;21.20;75.50
60313;DHT22;46158;52.850;6.970;2023-07-13T16:07:18;21.20;75.40
60313;DHT22;46158;52.850;6.970;2023-07-13T16:09:45;21.20;75.50
60313;DHT22;46158;52.850;6.970;2023-07-13T16:12:13;21.20;75.40
60313;DHT22;46158;52.850;6.970;2023-07-13T16:14:40;21.20;75.40
60313;DHT22;46158;52.850;6.970;2023-07-13T16:17:12;21.20;75.40
60313;DHT22;46158;52.850;6.970;2023-07-13T16:19:38;21.20;75.40
60313;DHT22;46158;52.850;6.970;2023-07-13T16:22:08;21.20;75.30
60313;DHT22;46158;52.850;6.970;2023-07-13T16:24:37;21.20;75.20
60313;DHT22;46158;52.850;6.970;2023-07-13T16:27:04;21.20;75.20
60313;DHT22;46158;52.850;6.970;2023-07-13T16:29:32;21.20;75.20
60313;DHT22;46158;52.850;6.970;2023-07-13T16:34:26;21.20;75.20